International Virtual Aviation Organisation

Russian Federation and Kazakhstan MCD

 

Карточка аэропорта UWUU

Внимание!
Информация на этой странице в стадии наполнения.
Если вы не увидели какой-то информации, или заметили неточность - пожалуйста сообщите нам!
Спасибо!
Команда RU-STAFF
Название аэропортаУфа
Название аэропорта (англ.)Ufa
Превышение449 ft. (136.9 m.)
Координаты54°33.6', 55°52.2'
Высота перехода5000ft
Эшелон переходаFL070
Коды ответчика6730-6731
Зона ОрВДСамара РПИ (UWWW)
Данные METARUWUU 300100Z 09002MPS 9999 OVC010 M06/M07 Q1049 R14R/450538 TEMPO 0500 FZDZ FZFG VV003 RMK QBB300
Проноз погоды (TAF)UWUU 292252Z 3000/3024 VRB01MPS 2100 -SN BR OVC007 TXM05/3010Z TNM09/3003Z TEMPO 3000/3008 10003MPS 0200 FZDZ FZFG VV002 FM300800 VRB01MPS 6000 OVC016 TEMPO 3008/3015 04003MPS 3100 -SN BKN011 OVC016 TEMPO 3015/3024 0200 FZFG VV002
NOTAMshow/hide NOTAM
AWOS   TABLE

Информация о ВПП

ВПП Длина ВПП (м.) Покрытие Курс ВПП Частота ILS
14L2516Асфальтобетон138108.3
32R2516Асфальтобетон318109.1
14R3765Бетон138110.3
32L3765Бетон318 

Диспетчерские позиции

Позывной Наименование органа УВД Частота
UWUU_GNDУфа-Руление119.000
UWUU_TWRУфа-Старт120.900
UWUU_R_APPУфа-Круг124.000
UWUU_APPУфа-Подход126.000



Спутниковое изображение